sensor_id;sensor_type;location;lat;lon;timestamp;temperature;humidity
15296;DHT22;7749;49.964;7.890;2022-10-16T00:01:42;14.50;99.90
15296;DHT22;7749;49.964;7.890;2022-10-16T00:04:10;14.50;99.90
15296;DHT22;7749;49.964;7.890;2022-10-16T00:06:38;14.60;99.90
15296;DHT22;7749;49.964;7.890;2022-10-16T00:09:06;14.50;99.90
15296;DHT22;7749;49.964;7.890;2022-10-16T00:11:36;14.40;99.90
15296;DHT22;7749;49.964;7.890;2022-10-16T00:14:07;14.50;99.90
15296;DHT22;7749;49.964;7.890;2022-10-16T00:16:35;14.50;99.90
15296;DHT22;7749;49.964;7.890;2022-10-16T00:19:03;14.50;99.90
15296;DHT22;7749;49.964;7.890;2022-10-16T00:21:32;14.40;99.90
15296;DHT22;7749;49.964;7.890;2022-10-16T00:24:03;14.50;99.90
15296;DHT22;7749;49.964;7.890;2022-10-16T00:26:33;14.40;99.90
15296;DHT22;7749;49.964;7.890;2022-10-16T00:29:01;14.40;99.90
15296;DHT22;7749;49.964;7.890;2022-10-16T00:31:29;14.30;99.90
15296;DHT22;7749;49.964;7.890;2022-10-16T00:33:57;14.30;99.90
15296;DHT22;7749;49.964;7.890;2022-10-16T00:36:25;14.30;99.90
15296;DHT22;7749;49.964;7.890;2022-10-16T00:38:54;14.30;99.90
15296;DHT22;7749;49.964;7.890;2022-10-16T00:41:24;14.30;99.90
15296;DHT22;7749;49.964;7.890;2022-10-16T00:43:58;14.30;99.90
15296;DHT22;7749;49.964;7.890;2022-10-16T00:46:27;14.30;99.90
15296;DHT22;7749;49.964;7.890;2022-10-16T00:49:21;14.30;99.90
15296;DHT22;7749;49.964;7.890;2022-10-16T00:51:53;14.30;99.90
15296;DHT22;7749;49.964;7.890;2022-10-16T00:54:26;14.30;99.90
15296;DHT22;7749;49.964;7.890;2022-10-16T00:56:56;14.30;99.90
15296;DHT22;7749;49.964;7.890;2022-10-16T00:59:30;14.40;99.90
15296;DHT22;7749;49.964;7.890;2022-10-16T01:01:58;14.30;99.90
15296;DHT22;7749;49.964;7.890;2022-10-16T01:04:30;14.40;99.90
15296;DHT22;7749;49.964;7.890;2022-10-16T01:10:17;14.40;99.90
15296;DHT22;7749;49.964;7.890;2022-10-16T01:20:52;14.40;99.90
15296;DHT22;7749;49.964;7.890;2022-10-16T01:29:33;14.40;99.90
15296;DHT22;7749;49.964;7.890;2022-10-16T01:34:50;14.40;99.90
15296;DHT22;7749;49.964;7.890;2022-10-16T01:37:31;14.40;99.90
15296;DHT22;7749;49.964;7.890;2022-10-16T01:40:00;14.40;99.90
15296;DHT22;7749;49.964;7.890;2022-10-16T01:42:35;14.40;99.90
15296;DHT22;7749;49.964;7.890;2022-10-16T01:45:05;14.50;99.90
15296;DHT22;7749;49.964;7.890;2022-10-16T01:47:35;14.50;99.90
15296;DHT22;7749;49.964;7.890;2022-10-16T01:50:04;14.50;99.90
15296;DHT22;7749;49.964;7.890;2022-10-16T01:52:35;14.50;99.90
15296;DHT22;7749;49.964;7.890;2022-10-16T01:55:06;14.50;99.90
15296;DHT22;7749;49.964;7.890;2022-10-16T01:57:38;14.40;99.90
15296;DHT22;7749;49.964;7.890;2022-10-16T02:00:11;14.40;99.90
15296;DHT22;7749;49.964;7.890;2022-10-16T02:02:41;14.50;99.90
15296;DHT22;7749;49.964;7.890;2022-10-16T02:07:49;14.50;99.90
15296;DHT22;7749;49.964;7.890;2022-10-16T02:10:17;14.50;99.90
15296;DHT22;7749;49.964;7.890;2022-10-16T02:12:53;14.60;99.90
15296;DHT22;7749;49.964;7.890;2022-10-16T02:15:23;14.70;99.90
15296;DHT22;7749;49.964;7.890;2022-10-16T02:17:51;14.60;99.90
15296;DHT22;7749;49.964;7.890;2022-10-16T02:20:25;14.70;99.90
15296;DHT22;7749;49.964;7.890;2022-10-16T02:22:56;14.70;99.90
15296;DHT22;7749;49.964;7.890;2022-10-16T02:25:32;14.60;99.90
15296;DHT22;7749;49.964;7.890;2022-10-16T02:30:45;14.60;99.90
15296;DHT22;7749;49.964;7.890;2022-10-16T02:33:16;14.60;99.90
15296;DHT22;7749;49.964;7.890;2022-10-16T02:35:46;14.60;99.90
15296;DHT22;7749;49.964;7.890;2022-10-16T02:38:16;14.60;99.90
15296;DHT22;7749;49.964;7.890;2022-10-16T02:40:44;14.60;99.90
15296;DHT22;7749;49.964;7.890;2022-10-16T02:43:12;14.50;99.90
15296;DHT22;7749;49.964;7.890;2022-10-16T02:45:40;14.50;99.90
15296;DHT22;7749;49.964;7.890;2022-10-16T02:48:08;14.50;99.90
15296;DHT22;7749;49.964;7.890;2022-10-16T02:50:35;14.50;99.90
15296;DHT22;7749;49.964;7.890;2022-10-16T02:53:03;14.50;99.90
15296;DHT22;7749;49.964;7.890;2022-10-16T02:55:30;14.50;99.90
15296;DHT22;7749;49.964;7.890;2022-10-16T02:57:58;14.60;99.90
15296;DHT22;7749;49.964;7.890;2022-10-16T03:00:26;14.60;99.90
15296;DHT22;7749;49.964;7.890;2022-10-16T03:02:53;14.60;99.90
15296;DHT22;7749;49.964;7.890;2022-10-16T03:05:21;14.50;99.90
15296;DHT22;7749;49.964;7.890;2022-10-16T03:07:49;14.50;99.90
15296;DHT22;7749;49.964;7.890;2022-10-16T03:10:17;14.50;99.90
15296;DHT22;7749;49.964;7.890;2022-10-16T03:12:45;14.50;99.90
15296;DHT22;7749;49.964;7.890;2022-10-16T03:15:13;14.50;99.90
15296;DHT22;7749;49.964;7.890;2022-10-16T03:17:40;14.50;99.90
15296;DHT22;7749;49.964;7.890;2022-10-16T03:20:08;14.50;99.90
15296;DHT22;7749;49.964;7.890;2022-10-16T03:22:36;14.40;99.90
15296;DHT22;7749;49.964;7.890;2022-10-16T03:25:04;14.50;99.90
15296;DHT22;7749;49.964;7.890;2022-10-16T03:27:32;14.50;99.90
15296;DHT22;7749;49.964;7.890;2022-10-16T03:29:59;14.50;99.90
15296;DHT22;7749;49.964;7.890;2022-10-16T03:32:27;14.50;99.90
15296;DHT22;7749;49.964;7.890;2022-10-16T03:34:56;14.50;99.90
15296;DHT22;7749;49.964;7.890;2022-10-16T03:37:24;14.50;99.90
15296;DHT22;7749;49.964;7.890;2022-10-16T03:39:52;14.60;99.90
15296;DHT22;7749;49.964;7.890;2022-10-16T03:42:20;14.50;99.90
15296;DHT22;7749;49.964;7.890;2022-10-16T03:44:47;14.60;99.90
15296;DHT22;7749;49.964;7.890;2022-10-16T03:47:15;14.50;99.90
15296;DHT22;7749;49.964;7.890;2022-10-16T03:49:48;14.60;99.90
15296;DHT22;7749;49.964;7.890;2022-10-16T03:52:16;14.60;99.90
15296;DHT22;7749;49.964;7.890;2022-10-16T03:54:48;14.60;99.90
15296;DHT22;7749;49.964;7.890;2022-10-16T03:57:16;14.60;99.90
15296;DHT22;7749;49.964;7.890;2022-10-16T03:59:44;14.60;99.90
15296;DHT22;7749;49.964;7.890;2022-10-16T04:02:12;14.50;99.90
15296;DHT22;7749;49.964;7.890;2022-10-16T04:04:40;14.60;99.90
15296;DHT22;7749;49.964;7.890;2022-10-16T04:07:08;14.60;99.90
15296;DHT22;7749;49.964;7.890;2022-10-16T04:09:35;14.60;99.90
15296;DHT22;7749;49.964;7.890;2022-10-16T04:12:03;14.60;99.90
15296;DHT22;7749;49.964;7.890;2022-10-16T04:14:30;14.60;99.90
15296;DHT22;7749;49.964;7.890;2022-10-16T04:16:58;14.50;99.90
15296;DHT22;7749;49.964;7.890;2022-10-16T04:19:26;14.50;99.90
15296;DHT22;7749;49.964;7.890;2022-10-16T04:21:53;14.60;99.90
15296;DHT22;7749;49.964;7.890;2022-10-16T04:24:21;14.50;99.90
15296;DHT22;7749;49.964;7.890;2022-10-16T04:26:48;14.40;99.90
15296;DHT22;7749;49.964;7.890;2022-10-16T04:29:16;14.40;99.90
15296;DHT22;7749;49.964;7.890;2022-10-16T04:31:44;14.40;99.90
15296;DHT22;7749;49.964;7.890;2022-10-16T04:34:11;14.40;99.90
15296;DHT22;7749;49.964;7.890;2022-10-16T04:36:39;14.40;99.90
15296;DHT22;7749;49.964;7.890;2022-10-16T04:39:06;14.40;99.90
15296;DHT22;7749;49.964;7.890;2022-10-16T04:41:34;14.40;99.90
15296;DHT22;7749;49.964;7.890;2022-10-16T04:44:02;14.50;99.90
15296;DHT22;7749;49.964;7.890;2022-10-16T04:46:29;14.50;99.90
15296;DHT22;7749;49.964;7.890;2022-10-16T04:48:57;14.50;99.90
15296;DHT22;7749;49.964;7.890;2022-10-16T04:51:25;14.50;99.90
15296;DHT22;7749;49.964;7.890;2022-10-16T04:53:54;14.50;99.90
15296;DHT22;7749;49.964;7.890;2022-10-16T04:56:22;14.60;99.90
15296;DHT22;7749;49.964;7.890;2022-10-16T04:58:50;14.50;99.90
15296;DHT22;7749;49.964;7.890;2022-10-16T05:01:17;14.50;99.90
15296;DHT22;7749;49.964;7.890;2022-10-16T05:03:45;14.50;99.90
15296;DHT22;7749;49.964;7.890;2022-10-16T05:06:13;14.50;99.90
15296;DHT22;7749;49.964;7.890;2022-10-16T05:08:40;14.40;99.90
15296;DHT22;7749;49.964;7.890;2022-10-16T05:11:08;14.40;99.90
15296;DHT22;7749;49.964;7.890;2022-10-16T05:13:35;14.40;99.90
15296;DHT22;7749;49.964;7.890;2022-10-16T05:16:03;14.40;99.90
15296;DHT22;7749;49.964;7.890;2022-10-16T05:18:31;14.40;99.90
15296;DHT22;7749;49.964;7.890;2022-10-16T05:20:58;14.30;99.90
15296;DHT22;7749;49.964;7.890;2022-10-16T05:23:26;14.20;99.90
15296;DHT22;7749;49.964;7.890;2022-10-16T05:25:55;14.30;99.90
15296;DHT22;7749;49.964;7.890;2022-10-16T05:28:26;14.30;99.90
15296;DHT22;7749;49.964;7.890;2022-10-16T05:30:54;14.40;99.90
15296;DHT22;7749;49.964;7.890;2022-10-16T05:33:23;14.40;99.90
15296;DHT22;7749;49.964;7.890;2022-10-16T05:35:51;14.40;99.90
15296;DHT22;7749;49.964;7.890;2022-10-16T05:38:19;14.50;99.90
15296;DHT22;7749;49.964;7.890;2022-10-16T05:40:52;14.40;99.90
15296;DHT22;7749;49.964;7.890;2022-10-16T05:43:20;14.40;99.90
15296;DHT22;7749;49.964;7.890;2022-10-16T05:45:59;14.40;99.90
15296;DHT22;7749;49.964;7.890;2022-10-16T05:48:27;14.50;99.90
15296;DHT22;7749;49.964;7.890;2022-10-16T05:51:03;14.50;99.90
15296;DHT22;7749;49.964;7.890;2022-10-16T05:53:32;14.50;99.90
15296;DHT22;7749;49.964;7.890;2022-10-16T05:56:01;14.60;99.90
15296;DHT22;7749;49.964;7.890;2022-10-16T05:58:31;14.60;99.90
15296;DHT22;7749;49.964;7.890;2022-10-16T06:01:02;14.60;99.90
15296;DHT22;7749;49.964;7.890;2022-10-16T06:03:30;14.60;99.90
15296;DHT22;7749;49.964;7.890;2022-10-16T06:05:58;14.60;99.90
15296;DHT22;7749;49.964;7.890;2022-10-16T06:08:26;14.70;99.90
15296;DHT22;7749;49.964;7.890;2022-10-16T06:11:10;14.60;99.90
15296;DHT22;7749;49.964;7.890;2022-10-16T06:13:38;14.60;99.90
15296;DHT22;7749;49.964;7.890;2022-10-16T06:16:10;14.60;99.90
15296;DHT22;7749;49.964;7.890;2022-10-16T06:18:38;14.60;99.90
15296;DHT22;7749;49.964;7.890;2022-10-16T06:21:11;14.60;99.90
15296;DHT22;7749;49.964;7.890;2022-10-16T06:23:39;14.60;99.90
15296;DHT22;7749;49.964;7.890;2022-10-16T06:26:12;14.60;99.90
15296;DHT22;7749;49.964;7.890;2022-10-16T06:28:40;14.70;99.90
15296;DHT22;7749;49.964;7.890;2022-10-16T06:31:09;14.70;99.90
15296;DHT22;7749;49.964;7.890;2022-10-16T06:33:38;14.60;99.90
15296;DHT22;7749;49.964;7.890;2022-10-16T06:36:08;14.70;99.90
15296;DHT22;7749;49.964;7.890;2022-10-16T06:38:36;14.80;99.90
15296;DHT22;7749;49.964;7.890;2022-10-16T06:41:06;14.70;99.90
15296;DHT22;7749;49.964;7.890;2022-10-16T06:43:34;14.70;99.90
15296;DHT22;7749;49.964;7.890;2022-10-16T06:46:06;14.80;99.90
15296;DHT22;7749;49.964;7.890;2022-10-16T06:48:37;14.70;99.90
15296;DHT22;7749;49.964;7.890;2022-10-16T06:51:22;14.80;99.90
15296;DHT22;7749;49.964;7.890;2022-10-16T06:53:52;14.80;99.90
15296;DHT22;7749;49.964;7.890;2022-10-16T06:56:31;14.80;99.90
15296;DHT22;7749;49.964;7.890;2022-10-16T06:58:59;14.80;99.90
15296;DHT22;7749;49.964;7.890;2022-10-16T07:01:28;14.80;99.90
15296;DHT22;7749;49.964;7.890;2022-10-16T07:03:55;14.80;99.90
15296;DHT22;7749;49.964;7.890;2022-10-16T07:06:25;14.80;99.90
15296;DHT22;7749;49.964;7.890;2022-10-16T07:08:53;14.90;99.90
15296;DHT22;7749;49.964;7.890;2022-10-16T07:11:22;14.90;99.90
15296;DHT22;7749;49.964;7.890;2022-10-16T07:13:50;14.90;99.90
15296;DHT22;7749;49.964;7.890;2022-10-16T07:16:27;14.90;99.90
15296;DHT22;7749;49.964;7.890;2022-10-16T07:18:56;15.00;99.90
15296;DHT22;7749;49.964;7.890;2022-10-16T07:21:29;15.00;99.90
15296;DHT22;7749;49.964;7.890;2022-10-16T07:23:59;15.10;99.90
15296;DHT22;7749;49.964;7.890;2022-10-16T07:26:28;15.10;99.90
15296;DHT22;7749;49.964;7.890;2022-10-16T07:28:57;15.10;99.90
15296;DHT22;7749;49.964;7.890;2022-10-16T07:31:25;15.20;99.90
15296;DHT22;7749;49.964;7.890;2022-10-16T07:33:53;15.20;99.90
15296;DHT22;7749;49.964;7.890;2022-10-16T07:36:24;15.30;99.90
15296;DHT22;7749;49.964;7.890;2022-10-16T07:38:52;15.40;99.90
15296;DHT22;7749;49.964;7.890;2022-10-16T07:41:25;15.40;99.90
15296;DHT22;7749;49.964;7.890;2022-10-16T07:43:53;15.50;99.90
15296;DHT22;7749;49.964;7.890;2022-10-16T07:46:22;15.70;99.90
15296;DHT22;7749;49.964;7.890;2022-10-16T07:48:50;15.70;99.90
15296;DHT22;7749;49.964;7.890;2022-10-16T07:51:20;15.80;99.90
15296;DHT22;7749;49.964;7.890;2022-10-16T07:53:48;15.90;99.90
15296;DHT22;7749;49.964;7.890;2022-10-16T07:56:17;16.00;99.90
15296;DHT22;7749;49.964;7.890;2022-10-16T07:58:45;16.00;99.90
15296;DHT22;7749;49.964;7.890;2022-10-16T08:01:14;16.00;99.90
15296;DHT22;7749;49.964;7.890;2022-10-16T08:03:49;16.10;99.90
15296;DHT22;7749;49.964;7.890;2022-10-16T08:06:17;16.10;99.90
15296;DHT22;7749;49.964;7.890;2022-10-16T08:08:51;16.10;99.90
15296;DHT22;7749;49.964;7.890;2022-10-16T08:11:19;16.20;99.90
15296;DHT22;7749;49.964;7.890;2022-10-16T08:13:46;16.20;99.90
15296;DHT22;7749;49.964;7.890;2022-10-16T08:16:14;16.40;99.90
15296;DHT22;7749;49.964;7.890;2022-10-16T08:18:42;16.50;99.90
15296;DHT22;7749;49.964;7.890;2022-10-16T08:21:18;16.50;99.90
15296;DHT22;7749;49.964;7.890;2022-10-16T08:23:49;16.50;99.90
15296;DHT22;7749;49.964;7.890;2022-10-16T08:26:25;16.50;99.90
15296;DHT22;7749;49.964;7.890;2022-10-16T08:28:54;16.40;99.90
15296;DHT22;7749;49.964;7.890;2022-10-16T08:31:22;16.40;99.90
15296;DHT22;7749;49.964;7.890;2022-10-16T08:33:50;16.30;99.90
15296;DHT22;7749;49.964;7.890;2022-10-16T08:36:19;16.30;99.90
15296;DHT22;7749;49.964;7.890;2022-10-16T08:38:48;16.30;99.90
15296;DHT22;7749;49.964;7.890;2022-10-16T08:41:40;16.40;99.90
15296;DHT22;7749;49.964;7.890;2022-10-16T08:49:40;16.50;99.90
15296;DHT22;7749;49.964;7.890;2022-10-16T08:52:12;16.50;99.90
15296;DHT22;7749;49.964;7.890;2022-10-16T08:54:43;16.60;99.90
15296;DHT22;7749;49.964;7.890;2022-10-16T08:57:24;16.60;99.90
15296;DHT22;7749;49.964;7.890;2022-10-16T08:59:54;16.60;99.90
15296;DHT22;7749;49.964;7.890;2022-10-16T09:03:03;16.60;99.90
15296;DHT22;7749;49.964;7.890;2022-10-16T09:22:40;18.30;99.90
15296;DHT22;7749;49.964;7.890;2022-10-16T09:25:14;18.80;99.90
15296;DHT22;7749;49.964;7.890;2022-10-16T09:27:45;19.00;99.90
15296;DHT22;7749;49.964;7.890;2022-10-16T09:30:18;19.30;99.90
15296;DHT22;7749;49.964;7.890;2022-10-16T09:32:50;19.30;99.90
15296;DHT22;7749;49.964;7.890;2022-10-16T09:35:53;19.10;99.90
15296;DHT22;7749;49.964;7.890;2022-10-16T09:38:33;18.80;99.90
15296;DHT22;7749;49.964;7.890;2022-10-16T09:41:13;18.70;99.90
15296;DHT22;7749;49.964;7.890;2022-10-16T09:46:28;19.40;99.90
15296;DHT22;7749;49.964;7.890;2022-10-16T09:49:01;19.60;99.90
15296;DHT22;7749;49.964;7.890;2022-10-16T09:51:35;20.10;99.90
15296;DHT22;7749;49.964;7.890;2022-10-16T09:54:15;20.20;99.90
15296;DHT22;7749;49.964;7.890;2022-10-16T09:56:47;20.00;99.90
15296;DHT22;7749;49.964;7.890;2022-10-16T09:59:21;20.10;99.90
15296;DHT22;7749;49.964;7.890;2022-10-16T10:01:53;20.30;99.90
15296;DHT22;7749;49.964;7.890;2022-10-16T10:04:24;20.50;99.90
15296;DHT22;7749;49.964;7.890;2022-10-16T10:06:55;20.70;99.90
15296;DHT22;7749;49.964;7.890;2022-10-16T10:12:05;20.30;99.90
15296;DHT22;7749;49.964;7.890;2022-10-16T10:14:48;20.30;99.90
15296;DHT22;7749;49.964;7.890;2022-10-16T10:17:25;20.50;99.90
15296;DHT22;7749;49.964;7.890;2022-10-16T10:20:13;20.20;99.90
15296;DHT22;7749;49.964;7.890;2022-10-16T10:22:44;20.10;99.90
15296;DHT22;7749;49.964;7.890;2022-10-16T10:30:27;19.50;99.90
15296;DHT22;7749;49.964;7.890;2022-10-16T10:36:23;19.00;99.90
15296;DHT22;7749;49.964;7.890;2022-10-16T10:39:00;18.80;99.90
15296;DHT22;7749;49.964;7.890;2022-10-16T10:42:05;18.70;99.90
15296;DHT22;7749;49.964;7.890;2022-10-16T10:50:49;18.50;99.90
15296;DHT22;7749;49.964;7.890;2022-10-16T10:53:33;18.40;99.90
15296;DHT22;7749;49.964;7.890;2022-10-16T10:56:16;18.20;99.90
15296;DHT22;7749;49.964;7.890;2022-10-16T11:01:56;18.20;99.90
15296;DHT22;7749;49.964;7.890;2022-10-16T11:04:41;18.30;99.90
15296;DHT22;7749;49.964;7.890;2022-10-16T11:07:18;18.30;99.90
15296;DHT22;7749;49.964;7.890;2022-10-16T11:09:49;18.40;99.90
15296;DHT22;7749;49.964;7.890;2022-10-16T11:12:31;18.40;99.90
15296;DHT22;7749;49.964;7.890;2022-10-16T11:15:21;18.50;99.90
15296;DHT22;7749;49.964;7.890;2022-10-16T11:18:01;18.70;99.90
15296;DHT22;7749;49.964;7.890;2022-10-16T11:20:42;18.90;99.90
15296;DHT22;7749;49.964;7.890;2022-10-16T11:23:23;19.00;99.90
15296;DHT22;7749;49.964;7.890;2022-10-16T11:25:55;19.20;99.90
15296;DHT22;7749;49.964;7.890;2022-10-16T11:28:34;19.20;99.90
15296;DHT22;7749;49.964;7.890;2022-10-16T11:31:16;19.10;99.90
15296;DHT22;7749;49.964;7.890;2022-10-16T11:33:59;18.90;99.90
15296;DHT22;7749;49.964;7.890;2022-10-16T11:39:30;18.90;99.90
15296;DHT22;7749;49.964;7.890;2022-10-16T11:42:16;18.80;99.90
15296;DHT22;7749;49.964;7.890;2022-10-16T11:50:46;19.00;99.90
15296;DHT22;7749;49.964;7.890;2022-10-16T11:55:45;19.30;99.90
15296;DHT22;7749;49.964;7.890;2022-10-16T11:58:22;19.40;99.90
15296;DHT22;7749;49.964;7.890;2022-10-16T12:01:16;19.30;99.90
15296;DHT22;7749;49.964;7.890;2022-10-16T12:04:03;19.50;99.90
15296;DHT22;7749;49.964;7.890;2022-10-16T12:09:03;19.80;99.90
15296;DHT22;7749;49.964;7.890;2022-10-16T12:11:35;19.80;99.90
15296;DHT22;7749;49.964;7.890;2022-10-16T12:16:58;19.90;99.90
15296;DHT22;7749;49.964;7.890;2022-10-16T12:19:30;20.10;99.90
15296;DHT22;7749;49.964;7.890;2022-10-16T12:22:00;20.30;99.90
15296;DHT22;7749;49.964;7.890;2022-10-16T12:24:32;20.60;99.90
15296;DHT22;7749;49.964;7.890;2022-10-16T12:27:33;20.60;99.90
15296;DHT22;7749;49.964;7.890;2022-10-16T12:30:03;20.70;99.90
15296;DHT22;7749;49.964;7.890;2022-10-16T12:32:34;20.70;99.90
15296;DHT22;7749;49.964;7.890;2022-10-16T12:35:21;20.80;99.90
15296;DHT22;7749;49.964;7.890;2022-10-16T12:37:50;20.70;99.90
15296;DHT22;7749;49.964;7.890;2022-10-16T12:40:26;20.50;99.90
15296;DHT22;7749;49.964;7.890;2022-10-16T12:42:54;20.30;99.90
15296;DHT22;7749;49.964;7.890;2022-10-16T12:45:33;20.20;99.90
15296;DHT22;7749;49.964;7.890;2022-10-16T12:48:04;20.20;99.90
15296;DHT22;7749;49.964;7.890;2022-10-16T12:50:38;20.20;99.90
15296;DHT22;7749;49.964;7.890;2022-10-16T12:53:21;20.30;99.90
15296;DHT22;7749;49.964;7.890;2022-10-16T12:59:15;22.10;99.90
15296;DHT22;7749;49.964;7.890;2022-10-16T13:18:40;21.50;99.90
15296;DHT22;7749;49.964;7.890;2022-10-16T13:21:18;21.30;99.90
15296;DHT22;7749;49.964;7.890;2022-10-16T13:24:12;21.20;99.90
15296;DHT22;7749;49.964;7.890;2022-10-16T13:26:49;21.10;99.90
15296;DHT22;7749;49.964;7.890;2022-10-16T13:29:20;20.90;99.90
15296;DHT22;7749;49.964;7.890;2022-10-16T13:31:48;20.90;99.90
15296;DHT22;7749;49.964;7.890;2022-10-16T13:34:19;20.90;99.90
15296;DHT22;7749;49.964;7.890;2022-10-16T13:36:50;20.80;99.90
15296;DHT22;7749;49.964;7.890;2022-10-16T13:39:30;20.70;99.90
15296;DHT22;7749;49.964;7.890;2022-10-16T13:42:12;20.70;99.90
15296;DHT22;7749;49.964;7.890;2022-10-16T13:44:43;20.60;99.90
15296;DHT22;7749;49.964;7.890;2022-10-16T13:47:23;20.60;99.90
15296;DHT22;7749;49.964;7.890;2022-10-16T13:50:12;20.50;99.90
15296;DHT22;7749;49.964;7.890;2022-10-16T13:52:40;20.50;99.90
15296;DHT22;7749;49.964;7.890;2022-10-16T13:55:21;20.60;99.90
15296;DHT22;7749;49.964;7.890;2022-10-16T13:58:08;20.80;99.90
15296;DHT22;7749;49.964;7.890;2022-10-16T14:01:02;21.00;99.90
15296;DHT22;7749;49.964;7.890;2022-10-16T14:03:42;21.20;99.90
15296;DHT22;7749;49.964;7.890;2022-10-16T14:06:21;21.20;99.90
15296;DHT22;7749;49.964;7.890;2022-10-16T14:09:18;21.10;99.90
15296;DHT22;7749;49.964;7.890;2022-10-16T14:11:51;21.10;99.90
15296;DHT22;7749;49.964;7.890;2022-10-16T14:14:21;21.10;99.90
15296;DHT22;7749;49.964;7.890;2022-10-16T14:16:53;21.10;99.90
15296;DHT22;7749;49.964;7.890;2022-10-16T14:19:29;21.20;99.90
15296;DHT22;7749;49.964;7.890;2022-10-16T14:21:59;21.10;99.90
15296;DHT22;7749;49.964;7.890;2022-10-16T14:24:36;21.00;99.90
15296;DHT22;7749;49.964;7.890;2022-10-16T14:27:26;20.80;99.90
15296;DHT22;7749;49.964;7.890;2022-10-16T14:30:22;20.60;99.90
15296;DHT22;7749;49.964;7.890;2022-10-16T14:33:35;20.40;99.90
15296;DHT22;7749;49.964;7.890;2022-10-16T14:39:34;20.00;99.90
15296;DHT22;7749;49.964;7.890;2022-10-16T14:41:48;19.90;99.90
15296;DHT22;7749;49.964;7.890;2022-10-16T14:44:23;19.80;99.90
15296;DHT22;7749;49.964;7.890;2022-10-16T14:46:52;19.80;99.90
15296;DHT22;7749;49.964;7.890;2022-10-16T14:49:20;19.70;99.90
15296;DHT22;7749;49.964;7.890;2022-10-16T14:51:49;19.70;99.90
15296;DHT22;7749;49.964;7.890;2022-10-16T14:54:18;19.70;99.90
15296;DHT22;7749;49.964;7.890;2022-10-16T14:56:51;19.60;99.90
15296;DHT22;7749;49.964;7.890;2022-10-16T14:59:27;19.60;99.90
15296;DHT22;7749;49.964;7.890;2022-10-16T15:01:56;19.60;99.90
15296;DHT22;7749;49.964;7.890;2022-10-16T15:04:23;19.60;99.90
15296;DHT22;7749;49.964;7.890;2022-10-16T15:06:51;19.50;99.90
15296;DHT22;7749;49.964;7.890;2022-10-16T15:09:19;19.50;99.90
15296;DHT22;7749;49.964;7.890;2022-10-16T15:11:46;19.40;99.90
15296;DHT22;7749;49.964;7.890;2022-10-16T15:14:19;19.40;99.90
15296;DHT22;7749;49.964;7.890;2022-10-16T15:16:47;19.30;99.90
15296;DHT22;7749;49.964;7.890;2022-10-16T15:19:15;19.40;99.90
15296;DHT22;7749;49.964;7.890;2022-10-16T15:21:42;19.30;99.90
15296;DHT22;7749;49.964;7.890;2022-10-16T15:24:12;19.30;99.90
15296;DHT22;7749;49.964;7.890;2022-10-16T15:26:45;19.20;99.90
15296;DHT22;7749;49.964;7.890;2022-10-16T15:29:13;19.20;99.90
15296;DHT22;7749;49.964;7.890;2022-10-16T15:31:41;19.10;99.90
15296;DHT22;7749;49.964;7.890;2022-10-16T15:34:14;19.20;99.90
15296;DHT22;7749;49.964;7.890;2022-10-16T15:36:42;19.00;99.90
15296;DHT22;7749;49.964;7.890;2022-10-16T15:39:15;19.10;99.90
15296;DHT22;7749;49.964;7.890;2022-10-16T15:41:45;19.10;99.90
15296;DHT22;7749;49.964;7.890;2022-10-16T15:44:15;19.00;99.90
15296;DHT22;7749;49.964;7.890;2022-10-16T15:46:43;19.00;99.90
15296;DHT22;7749;49.964;7.890;2022-10-16T15:49:11;19.00;99.90
15296;DHT22;7749;49.964;7.890;2022-10-16T15:51:40;18.90;99.90
15296;DHT22;7749;49.964;7.890;2022-10-16T15:54:09;18.90;99.90
15296;DHT22;7749;49.964;7.890;2022-10-16T15:56:37;18.80;99.90
15296;DHT22;7749;49.964;7.890;2022-10-16T15:59:06;18.80;99.90
15296;DHT22;7749;49.964;7.890;2022-10-16T16:01:35;18.80;99.90
15296;DHT22;7749;49.964;7.890;2022-10-16T16:04:03;18.80;99.90
15296;DHT22;7749;49.964;7.890;2022-10-16T16:06:42;18.80;99.90
15296;DHT22;7749;49.964;7.890;2022-10-16T16:09:13;18.80;99.90
15296;DHT22;7749;49.964;7.890;2022-10-16T16:11:41;18.70;99.90
15296;DHT22;7749;49.964;7.890;2022-10-16T16:14:13;18.80;99.90
15296;DHT22;7749;49.964;7.890;2022-10-16T16:16:41;18.70;99.90
15296;DHT22;7749;49.964;7.890;2022-10-16T16:19:09;18.60;99.90
15296;DHT22;7749;49.964;7.890;2022-10-16T16:21:38;18.60;99.90
15296;DHT22;7749;49.964;7.890;2022-10-16T16:24:06;18.50;99.90
15296;DHT22;7749;49.964;7.890;2022-10-16T16:26:36;18.50;99.90
15296;DHT22;7749;49.964;7.890;2022-10-16T16:29:12;18.40;99.90
15296;DHT22;7749;49.964;7.890;2022-10-16T16:31:41;18.40;99.90
15296;DHT22;7749;49.964;7.890;2022-10-16T16:34:09;18.40;99.90
15296;DHT22;7749;49.964;7.890;2022-10-16T16:36:37;18.30;99.90
15296;DHT22;7749;49.964;7.890;2022-10-16T16:39:04;18.30;99.90
15296;DHT22;7749;49.964;7.890;2022-10-16T16:41:32;18.30;99.90
15296;DHT22;7749;49.964;7.890;2022-10-16T16:44:05;18.30;99.90
15296;DHT22;7749;49.964;7.890;2022-10-16T16:46:34;18.30;99.90
15296;DHT22;7749;49.964;7.890;2022-10-16T16:49:03;18.20;99.90
15296;DHT22;7749;49.964;7.890;2022-10-16T16:51:30;18.20;99.90
15296;DHT22;7749;49.964;7.890;2022-10-16T16:54:02;18.10;99.90
15296;DHT22;7749;49.964;7.890;2022-10-16T16:56:29;18.10;99.90
15296;DHT22;7749;49.964;7.890;2022-10-16T16:58:57;18.10;99.90
15296;DHT22;7749;49.964;7.890;2022-10-16T17:01:26;18.10;99.90
15296;DHT22;7749;49.964;7.890;2022-10-16T17:03:56;18.10;99.90
15296;DHT22;7749;49.964;7.890;2022-10-16T17:06:26;18.00;99.90
15296;DHT22;7749;49.964;7.890;2022-10-16T17:08:54;18.00;99.90
15296;DHT22;7749;49.964;7.890;2022-10-16T17:11:24;17.90;99.90
15296;DHT22;7749;49.964;7.890;2022-10-16T17:13:54;17.80;99.90
15296;DHT22;7749;49.964;7.890;2022-10-16T17:16:32;17.80;99.90
15296;DHT22;7749;49.964;7.890;2022-10-16T17:19:06;17.70;99.90
15296;DHT22;7749;49.964;7.890;2022-10-16T17:21:34;17.60;99.90
15296;DHT22;7749;49.964;7.890;2022-10-16T17:24:03;17.50;99.90
15296;DHT22;7749;49.964;7.890;2022-10-16T17:26:31;17.50;99.90
15296;DHT22;7749;49.964;7.890;2022-10-16T17:29:00;17.40;99.90
15296;DHT22;7749;49.964;7.890;2022-10-16T17:31:31;17.40;99.90
15296;DHT22;7749;49.964;7.890;2022-10-16T17:33:59;17.30;99.90
15296;DHT22;7749;49.964;7.890;2022-10-16T17:36:30;17.10;99.90
15296;DHT22;7749;49.964;7.890;2022-10-16T17:39:01;17.20;99.90
15296;DHT22;7749;49.964;7.890;2022-10-16T17:41:31;17.10;99.90
15296;DHT22;7749;49.964;7.890;2022-10-16T17:44:00;17.10;99.90
15296;DHT22;7749;49.964;7.890;2022-10-16T17:46:28;17.00;99.90
15296;DHT22;7749;49.964;7.890;2022-10-16T17:48:56;17.00;99.90
15296;DHT22;7749;49.964;7.890;2022-10-16T17:51:29;17.00;99.90
15296;DHT22;7749;49.964;7.890;2022-10-16T17:53:59;16.90;99.90
15296;DHT22;7749;49.964;7.890;2022-10-16T17:56:28;16.80;99.90
15296;DHT22;7749;49.964;7.890;2022-10-16T17:58:58;16.70;99.90
15296;DHT22;7749;49.964;7.890;2022-10-16T18:01:29;16.70;99.90
15296;DHT22;7749;49.964;7.890;2022-10-16T18:04:11;16.60;99.90
15296;DHT22;7749;49.964;7.890;2022-10-16T18:06:40;16.60;99.90